West Leipsic, Ohio
Current Conditions -  °F | °C
As of 6:53 PM on Sunday 21 Dec 2014 (Local Time) from KFDY Reporting Station
Clear Clear  
Wind Chill: 24°   Ceiling: Unl
Heat Index: 30°   Visibility: 7mi
Dew Point: 24°   Wind: 6mph
Humidity: 79%   Direction: 90°E
Pressure: 30.19"   Gusts: NA
Location:  41.1137°N, 83.9935°W
Report Text: KFDY 212353Z AUTO 09005KT 7SM CLR M01/M04 A3019 RMK AO2 SLP233 T10111044 10022 21011 56004
Loading
Personal Weather Stations






























Interactive Weather Map New forecast layout! Learn more

10-Day Weather Forecast

Advertisements
Track Severe Weather on mobile